Blunt, South Dakota
Current Conditions -  °F | °C
As of 12:53 AM on Saturday 25 Oct 2014 (Local Time) from KPIR Reporting Station
Clear Clear  
Wind Chill: 55°   Ceiling: Unl
Heat Index: 55°   Visibility: 10mi
Dew Point: 37°   Wind: 7mph
Humidity: 51%   Direction: 360°N
Pressure: 30.08"   Gusts: NA
Location:  44.51°N, 99.99°W
Report Text: KPIR 250553Z AUTO 36006KT 10SM CLR 13/03 A3008 RMK AO2 SLP180 T01280028 10183 20122 402560033 53019
Loading
Personal Weather Stations






























Interactive Weather Map
Tropical Storm Tracking
New forecast layout! Learn more

10-Day Weather Forecast

Advertisements
Track Severe Weather on mobile